Monterrey Gen Maria, Mexico

12:56 AM EST on July 24, 2016 (GMT -0500)
Gen Mariano Escobedo International | | Change Station

Elev 1270 ft 25.78 °N, 100.11 °W | Updated 1 hour ago

Clear
Clear
84 °F
Feels Like 87 °F
N
12
Wind Variable Wind from East

Today
High -- | Low -- °F
--% Chance of Precip.
Yesterday
High -- | Low -- °F
Precip. -- in
Pressure 29.91 in
Visibility 15.0 miles
Clouds Clear
Heat Index 87 °F
Dew Point 66 °F
Humidity 55%
Rainfall 0.00 in
Snow Depth Not available.
7:03 AM 8:30 PM
Waning Gibbous, 79% visible
METAR MMMY 240441Z 10010KT 15SM SKC 29/19 A2991
Pressure 29.91 in
Visibility 15.0 miles
Clouds Clear
Heat Index 87 °F
Dew Point 66 °F
Humidity 55%
Rainfall 0.00 in
Snow Depth Not available.
7:03 AM 8:30 PM
Waning Gibbous, 79% visible
METAR MMMY 240441Z 10010KT 15SM SKC 29/19 A2991

10-Day Weather Forecast

No radar image for this location.
×

Almanac

Astronomy

Jul. 24, 2016 Rise Set
Actual Time
Civil Twilight
Nautical Twilight
Astronomical Twilight
Moon
Length of Visible Light
Length of Day
Tomorrow will be .
, % of the Moon is Illuminated

Today's Extremes

Country Highs Country Lows

Community

WunderPhotos

Upload Photos

1,927,039 photos uploaded!

WunderBlog® & News

Nearby

Air Quality

  Air Quality AQ Index Pollutant
Not available.

Snow Depth

Station Depth Elevation

Earthquake Activity

City Distance Mag. Time & Date
Minimum magnitude displayed is 2.5.

Coastal Water Temperatures

Place Temperature

Stations

Nearby Weather Stations

Station Location Temp. Windchill Dew Point Humidity Wind Precip. Elev Updated Type